createdAt,value
2019-05-16T00:07:04.946Z,79.68
2019-05-16T00:17:08.347Z,79.83
2019-05-16T00:27:09.805Z,79.52
2019-05-16T00:37:11.371Z,79.34
2019-05-16T00:47:13.212Z,78.56
2019-05-16T00:57:15.250Z,77.95
2019-05-16T01:07:18.700Z,79.82
2019-05-16T01:17:20.056Z,79.48
2019-05-16T01:27:21.490Z,80.00
2019-05-16T01:37:22.935Z,80.93
2019-05-16T01:47:24.374Z,81.64
2019-05-16T01:57:28.262Z,81.49
2019-05-16T02:07:29.838Z,82.59
2019-05-16T02:17:31.275Z,84.54
2019-05-16T02:27:32.709Z,84.40
2019-05-16T02:37:35.237Z,84.90
2019-05-16T02:47:36.946Z,86.24
2019-05-16T02:57:41.528Z,89.39
2019-05-16T03:07:46.865Z,86.02
2019-05-16T03:17:50.744Z,86.05
2019-05-16T03:27:52.505Z,87.09
2019-05-16T03:37:59.709Z,85.64
2019-05-16T03:47:57.707Z,86.79
2019-05-16T03:58:01.097Z,85.95
2019-05-16T04:08:15.261Z,87.53
2019-05-16T04:18:07.224Z,87.89
2019-05-16T04:28:11.453Z,85.97
2019-05-16T04:38:28.632Z,83.95
2019-05-16T04:48:15.744Z,81.81
2019-05-16T04:58:22.626Z,83.20
2019-05-16T05:08:22.476Z,82.88
2019-05-16T05:18:24.249Z,79.12
2019-05-16T05:28:25.693Z,77.64
2019-05-16T05:38:27.103Z,74.80
2019-05-16T05:48:30.876Z,64.61
2019-05-16T05:58:31.989Z,38.96
2019-05-16T06:08:33.488Z,27.47
2019-05-16T06:18:34.958Z,21.55
2019-05-16T06:28:41.054Z,19.25
2019-05-16T06:38:41.764Z,17.26
2019-05-16T06:48:43.204Z,20.83
2019-05-16T06:58:48.329Z,24.35
2019-05-16T07:08:50.519Z,20.56
2019-05-16T07:18:51.550Z,16.41
2019-05-16T07:28:53.058Z,29.61
2019-05-16T07:38:54.712Z,33.41
2019-05-16T07:48:56.156Z,43.71
2019-05-16T07:58:57.985Z,43.10
2019-05-16T08:09:00.304Z,47.84
2019-05-16T08:19:01.976Z,39.27
2019-05-16T08:29:03.549Z,46.69
2019-05-16T08:39:06.601Z,47.80
2019-05-16T08:49:12.015Z,48.14
2019-05-16T08:59:13.699Z,44.15
2019-05-16T09:09:29.702Z,42.55
2019-05-16T09:19:18.581Z,44.16
2019-05-16T09:29:20.412Z,35.46
2019-05-16T09:39:23.055Z,40.79
2019-05-16T09:49:26.198Z,34.15
2019-05-16T09:59:27.672Z,26.18
2019-05-16T10:09:41.162Z,33.42
2019-05-16T10:19:32.562Z,39.97
2019-05-16T10:29:34.121Z,49.52
2019-05-16T10:39:37.391Z,48.98
2019-05-16T10:49:41.964Z,45.11
2019-05-16T11:00:09.687Z,48.42
2019-05-16T11:09:55.751Z,44.08
2019-05-16T11:19:50.018Z,42.05
2019-05-16T11:29:51.447Z,40.40
2019-05-16T11:39:52.982Z,37.58
2019-05-16T11:49:56.941Z,36.59
2019-05-16T11:59:57.737Z,43.02
2019-05-16T12:09:59.185Z,41.46
2019-05-16T12:20:00.951Z,43.82
2019-05-16T12:30:13.013Z,43.91
2019-05-16T12:40:10.235Z,46.06
2019-05-16T12:50:12.973Z,46.58
2019-05-16T13:00:16.354Z,48.80
2019-05-16T13:10:19.265Z,40.82
2019-05-16T13:20:21.992Z,44.87
2019-05-16T13:30:26.701Z,44.55
2019-05-16T13:40:27.769Z,42.97
2019-05-16T13:50:29.718Z,47.84
2019-05-16T14:00:31.343Z,51.36
2019-05-16T14:10:32.775Z,47.21
2019-05-16T14:20:34.233Z,44.82
2019-05-16T14:30:37.281Z,47.59
2019-05-16T14:40:39.100Z,44.27
2019-05-16T14:50:41.341Z,46.82
2019-05-16T15:00:42.787Z,43.93
2019-05-16T15:10:46.750Z,43.73
2019-05-16T15:20:49.175Z,48.91
2019-05-16T15:30:50.951Z,46.98
2019-05-16T15:40:53.748Z,44.50
2019-05-16T15:50:59.502Z,47.79
2019-05-16T16:01:00.187Z,49.03
2019-05-16T16:11:01.701Z,53.94
2019-05-16T16:21:07.676Z,54.26
2019-05-16T16:31:09.379Z,52.49
2019-05-16T16:41:10.822Z,55.01
2019-05-16T16:51:12.697Z,56.71
2019-05-16T17:01:14.353Z,56.75
2019-05-16T17:11:15.887Z,58.76
2019-05-16T17:21:17.465Z,59.59
2019-05-16T17:31:18.934Z,60.67
2019-05-16T17:41:20.457Z,60.35
2019-05-16T17:51:22.109Z,60.90
2019-05-16T18:01:23.892Z,62.21
2019-05-16T18:11:26.780Z,60.10
2019-05-16T18:21:28.480Z,61.92
2019-05-16T18:31:32.169Z,65.95
2019-05-16T18:41:33.281Z,68.11
2019-05-16T18:51:36.880Z,69.49
2019-05-16T19:01:38.411Z,70.33
2019-05-16T19:11:40.278Z,73.46
2019-05-16T19:21:41.717Z,75.08
2019-05-16T19:31:43.424Z,76.28
2019-05-16T19:41:46.633Z,77.40
2019-05-16T19:51:49.093Z,79.53
2019-05-16T20:01:50.677Z,80.94
2019-05-16T20:11:52.371Z,81.91
2019-05-16T20:21:54.054Z,82.88
2019-05-16T20:31:56.447Z,84.08
2019-05-16T20:41:59.678Z,87.50
2019-05-16T20:52:01.496Z,83.78
2019-05-16T21:02:06.827Z,84.98
2019-05-16T21:12:08.513Z,85.60
2019-05-16T21:22:09.933Z,86.27
2019-05-16T21:32:11.592Z,86.82
2019-05-16T21:42:13.715Z,87.30
2019-05-16T21:52:15.172Z,87.93
2019-05-16T22:02:18.531Z,89.66
2019-05-16T22:12:20.466Z,89.47
2019-05-16T22:22:29.760Z,89.22
2019-05-16T22:32:29.462Z,88.71
2019-05-16T22:42:30.978Z,88.98
2019-05-16T22:52:32.596Z,89.50
2019-05-16T23:02:34.347Z,89.80
2019-05-16T23:12:37.159Z,91.57
2019-05-16T23:22:38.806Z,90.43
2019-05-16T23:32:40.267Z,89.78
2019-05-16T23:42:42.081Z,90.38
2019-05-16T23:52:43.506Z,90.43
